In Rescue
 
Open Full Screen Window  High Contrast Mode
Wind Gusting 00 knots
07
May 25, 2022 9:20 PM CDT
Weather Information
Wind Direction
  010 °
Wind Speed
  07 kt (8 mph)
Wind Gust
  00 kt (0 mph)
Altimeter
29.92 in
Visibility
10 SM
Temperature
08° C
46° F
Dewpoint
07° C
45° F
Humidity
93%
1hr Rain Fall
00.00 in.
24hr Rain Fall
00.03 in.
Sky Condition
Overcast @ 800 ft
IFR

METAR KAIT 260220Z AUTO 01007KT 10SM OVC008 08/07 A2992 RMK AO2

FAA Disclaimer: The data displayed is for advisory purposes only and is not to be used for flight planning or operations.